createdAt,value
2023-04-22T00:00:50.310Z,56.53
2023-04-22T00:03:23.428Z,55.55
2023-04-22T00:05:56.666Z,62.92
2023-04-22T00:08:29.530Z,55.53
2023-04-22T00:11:02.387Z,64.00
2023-04-22T00:13:35.197Z,63.23
2023-04-22T00:16:09.529Z,53.97
2023-04-22T00:18:43.089Z,58.85
2023-04-22T00:21:15.951Z,53.08
2023-04-22T00:23:48.755Z,49.75
2023-04-22T00:26:21.784Z,57.30
2023-04-22T00:28:54.656Z,53.80
2023-04-22T00:31:29.012Z,51.37
2023-04-22T00:34:01.908Z,46.60
2023-04-22T00:36:34.812Z,51.33
2023-04-22T00:39:07.639Z,45.15
2023-04-22T00:41:40.688Z,46.10
2023-04-22T00:44:16.613Z,48.88
2023-04-22T00:46:52.060Z,55.30
2023-04-22T00:49:27.496Z,51.25
2023-04-22T00:52:00.299Z,52.42
2023-04-22T00:54:35.209Z,51.47
2023-04-22T00:57:08.072Z,53.35
2023-04-22T00:59:41.458Z,53.00
2023-04-22T01:02:16.823Z,48.65
2023-04-22T01:04:50.080Z,49.28
2023-04-22T01:07:22.949Z,51.95
2023-04-22T01:09:55.749Z,53.80
2023-04-22T01:12:28.598Z,49.20
2023-04-22T01:15:04.343Z,47.93
2023-04-22T01:17:39.107Z,50.78
2023-04-22T01:20:13.921Z,49.72
2023-04-22T01:22:49.760Z,53.75
2023-04-22T01:25:24.122Z,47.38
2023-04-22T01:27:58.151Z,47.83
2023-04-22T01:30:31.069Z,47.00
2023-04-22T01:33:04.076Z,48.07
2023-04-22T01:35:37.741Z,53.75
2023-04-22T01:38:12.051Z,53.97
2023-04-22T01:40:46.308Z,50.70
2023-04-22T01:43:19.129Z,50.10
2023-04-22T01:45:52.078Z,46.37
2023-04-22T01:48:25.265Z,46.60
2023-04-22T01:50:58.117Z,46.10
2023-04-22T01:53:31.158Z,44.80
2023-04-22T01:56:05.676Z,49.40
2023-04-22T01:58:40.313Z,48.90
2023-04-22T02:01:14.107Z,45.30
2023-04-22T02:06:20.127Z,46.88
2023-04-22T02:08:52.937Z,46.53
2023-04-22T02:11:27.155Z,44.97
2023-04-22T02:14:00.110Z,44.28
2023-04-22T02:16:33.116Z,44.30
2023-04-22T02:19:06.304Z,46.10
2023-04-22T02:21:40.124Z,45.22
2023-04-22T02:24:12.941Z,47.25
2023-04-22T02:26:47.348Z,46.75
2023-04-22T02:29:20.246Z,40.30
2023-04-22T02:31:53.369Z,45.05
2023-04-22T02:34:26.433Z,49.70
2023-04-22T02:37:00.370Z,38.13
2023-04-22T02:39:33.256Z,41.90
2023-04-22T02:42:07.912Z,41.97
2023-04-22T02:44:41.148Z,49.65
2023-04-22T02:47:13.992Z,51.28
2023-04-22T02:49:46.823Z,45.10
2023-04-22T02:52:20.175Z,44.92
2023-04-22T02:54:52.960Z,44.80
2023-04-22T02:57:27.176Z,44.47
2023-04-22T03:00:00.009Z,44.10
2023-04-22T03:02:33.089Z,37.37
2023-04-22T03:05:32.347Z,45.60
2023-04-22T03:08:06.438Z,38.20
2023-04-22T03:10:39.429Z,46.53
2023-04-22T03:13:15.180Z,45.05
2023-04-22T03:15:48.323Z,42.83
2023-04-22T03:18:21.453Z,50.20
2023-04-22T03:20:54.264Z,46.28
2023-04-22T03:23:27.183Z,50.07
2023-04-22T03:26:00.055Z,50.13
2023-04-22T03:28:35.151Z,50.10
2023-04-22T03:31:08.319Z,47.55
2023-04-22T03:33:41.507Z,52.58
2023-04-22T03:36:22.867Z,48.47
2023-04-22T03:38:55.734Z,45.03
2023-04-22T03:41:31.143Z,56.28
2023-04-22T03:44:05.601Z,54.53
2023-04-22T03:46:39.947Z,52.50
2023-04-22T03:49:25.111Z,48.60
2023-04-22T03:51:58.004Z,46.37
2023-04-22T03:54:31.158Z,46.90
2023-04-22T03:57:04.066Z,47.90
2023-04-22T03:59:38.620Z,48.53
2023-04-22T04:02:12.359Z,52.60
2023-04-22T04:04:45.677Z,44.40
2023-04-22T04:07:18.829Z,50.10
2023-04-22T04:09:51.684Z,50.95
2023-04-22T04:12:24.578Z,61.67
2023-04-22T04:14:58.820Z,61.75
2023-04-22T04:17:31.819Z,67.03
2023-04-22T04:20:08.368Z,63.20
2023-04-22T04:22:42.812Z,67.18
2023-04-22T04:25:18.331Z,71.63
2023-04-22T04:27:52.715Z,75.90
2023-04-22T04:30:27.168Z,75.35
2023-04-22T04:33:06.864Z,75.80
2023-04-22T04:35:41.633Z,82.93
2023-04-22T04:38:16.652Z,81.30
2023-04-22T04:40:51.320Z,92.30
2023-04-22T04:43:29.416Z,80.88
2023-04-22T04:46:18.213Z,76.40
2023-04-22T04:48:54.040Z,71.50
2023-04-22T04:51:27.279Z,69.80
2023-04-22T04:54:03.690Z,55.65
2023-04-22T04:56:41.676Z,56.38
2023-04-22T04:59:15.898Z,55.70
2023-04-22T05:04:23.956Z,45.60
2023-04-22T05:06:56.993Z,41.35
2023-04-22T05:09:30.515Z,43.85
2023-04-22T05:12:03.377Z,39.78
2023-04-22T05:14:36.438Z,41.75
2023-04-22T05:17:10.860Z,40.13
2023-04-22T05:19:43.739Z,42.47
2023-04-22T05:22:18.007Z,37.08
2023-04-22T05:24:52.607Z,33.10
2023-04-22T05:27:26.268Z,33.92
2023-04-22T05:29:59.258Z,34.30
2023-04-22T05:32:38.210Z,39.65
2023-04-22T05:35:12.518Z,38.70
2023-04-22T05:37:45.733Z,35.60
2023-04-22T05:40:18.692Z,38.63
2023-04-22T05:42:51.634Z,46.47
2023-04-22T05:45:24.505Z,42.17
2023-04-22T05:47:58.788Z,48.75
2023-04-22T05:50:35.951Z,36.88
2023-04-22T05:53:13.568Z,30.10
2023-04-22T05:55:46.846Z,34.63
2023-04-22T05:58:19.873Z,31.65
2023-04-22T06:00:58.956Z,35.38
2023-04-22T06:04:06.667Z,37.67
2023-04-22T06:06:40.232Z,25.00
2023-04-22T06:09:13.035Z,24.13
2023-04-22T06:11:47.992Z,24.02
2023-04-22T06:14:20.892Z,22.08
2023-04-22T06:16:53.988Z,21.93
2023-04-22T06:19:28.408Z,24.02
2023-04-22T06:22:01.320Z,33.92
2023-04-22T06:24:34.254Z,38.58
2023-04-22T06:27:07.025Z,43.20
2023-04-22T06:32:21.170Z,30.30
2023-04-22T06:34:55.392Z,25.13
2023-04-22T06:37:28.469Z,25.88
2023-04-22T06:40:01.386Z,20.35
2023-04-22T06:42:57.098Z,21.27
2023-04-22T06:45:48.671Z,27.20
2023-04-22T06:48:44.416Z,18.88
2023-04-22T06:51:39.197Z,19.00
2023-04-22T06:54:13.229Z,18.92
2023-04-22T06:56:46.180Z,24.88
2023-04-22T06:59:19.395Z,24.88
2023-04-22T07:01:53.146Z,19.52
2023-04-22T07:04:27.684Z,17.38
2023-04-22T07:07:03.076Z,20.55
2023-04-22T07:09:36.329Z,17.30
2023-04-22T07:12:09.258Z,20.52
2023-04-22T07:14:44.376Z,17.83
2023-04-22T07:17:19.402Z,19.10
2023-04-22T07:19:53.408Z,19.02
2023-04-22T07:22:27.658Z,20.90
2023-04-22T07:25:00.565Z,18.25
2023-04-22T07:27:35.154Z,15.85
2023-04-22T07:30:09.623Z,17.13
2023-04-22T07:32:42.464Z,13.38
2023-04-22T07:35:15.307Z,14.68
2023-04-22T07:37:49.524Z,13.02
2023-04-22T07:40:22.393Z,20.33
2023-04-22T07:42:55.488Z,15.77
2023-04-22T07:45:28.669Z,15.60
2023-04-22T07:48:01.614Z,15.55
2023-04-22T07:50:35.217Z,13.75
2023-04-22T07:53:10.857Z,16.83
2023-04-22T07:55:43.801Z,15.10
2023-04-22T07:58:16.721Z,21.52
2023-04-22T08:00:49.744Z,11.07
2023-04-22T08:03:22.895Z,12.68
2023-04-22T08:08:32.516Z,21.40
2023-04-22T08:11:05.748Z,14.65
2023-04-22T08:16:11.347Z,12.73
2023-04-22T08:18:44.269Z,7.60
2023-04-22T08:21:17.174Z,7.68
2023-04-22T08:23:52.102Z,7.20
2023-04-22T08:26:25.642Z,6.55
2023-04-22T08:28:58.511Z,5.63
2023-04-22T08:31:31.723Z,6.55
2023-04-22T08:34:04.787Z,6.57
2023-04-22T08:36:37.698Z,5.45
2023-04-22T08:39:12.517Z,7.60
2023-04-22T08:41:46.930Z,8.73
2023-04-22T08:44:21.293Z,8.73
2023-04-22T08:46:55.990Z,10.48
2023-04-22T08:49:31.281Z,8.65
2023-04-22T08:52:04.208Z,10.65
2023-04-22T08:54:38.478Z,8.02
2023-04-22T08:57:12.114Z,6.32
2023-04-22T08:59:45.833Z,7.57
2023-04-22T09:02:21.943Z,8.10
2023-04-22T09:04:54.915Z,8.50
2023-04-22T09:07:29.622Z,7.95
2023-04-22T09:10:04.244Z,7.80
2023-04-22T09:12:40.387Z,7.32
2023-04-22T09:15:13.697Z,9.00
2023-04-22T09:17:46.559Z,6.63
2023-04-22T09:20:20.065Z,7.20
2023-04-22T09:22:54.195Z,10.35
2023-04-22T09:25:29.168Z,5.90
2023-04-22T09:28:02.202Z,11.57
2023-04-22T09:30:37.786Z,6.10
2023-04-22T09:33:10.858Z,11.70
2023-04-22T09:35:45.012Z,7.03
2023-04-22T09:38:17.956Z,4.55
2023-04-22T09:40:52.350Z,6.45
2023-04-22T09:43:25.277Z,5.85
2023-04-22T09:46:01.153Z,5.43
2023-04-22T09:48:34.085Z,6.50
2023-04-22T09:51:16.124Z,8.02
2023-04-22T09:53:59.544Z,5.97
2023-04-22T09:56:45.013Z,6.68
2023-04-22T09:59:22.967Z,3.33
2023-04-22T10:01:58.989Z,5.43
2023-04-22T10:04:32.128Z,6.60
2023-04-22T10:07:05.120Z,4.88
2023-04-22T10:09:38.368Z,4.82
2023-04-22T10:12:14.060Z,4.05
2023-04-22T10:14:47.142Z,3.30
2023-04-22T10:17:20.782Z,5.28
2023-04-22T10:19:56.392Z,3.88
2023-04-22T10:22:29.376Z,4.47
2023-04-22T10:25:02.319Z,4.30
2023-04-22T10:27:36.657Z,7.82
2023-04-22T10:30:12.246Z,3.65
2023-04-22T10:32:45.151Z,5.63
2023-04-22T10:35:18.033Z,2.72
2023-04-22T10:37:50.970Z,6.32
2023-04-22T10:40:24.278Z,3.13
2023-04-22T10:43:03.503Z,5.20
2023-04-22T10:45:36.846Z,6.20
2023-04-22T10:48:09.686Z,3.60
2023-04-22T10:50:42.565Z,7.05
2023-04-22T10:53:37.682Z,4.65
2023-04-22T10:56:19.452Z,3.00
2023-04-22T10:58:53.934Z,5.95
2023-04-22T11:01:29.277Z,2.63
2023-04-22T11:04:23.882Z,4.15
2023-04-22T11:07:31.859Z,2.95
2023-04-22T11:10:15.889Z,4.40
2023-04-22T11:12:51.002Z,4.50
2023-04-22T11:15:25.501Z,6.30
2023-04-22T11:17:58.783Z,3.03
2023-04-22T11:20:31.976Z,9.60
2023-04-22T11:23:05.530Z,3.92
2023-04-22T11:25:38.560Z,4.82
2023-04-22T11:28:11.665Z,5.25
2023-04-22T11:30:45.947Z,3.72
2023-04-22T11:33:20.145Z,5.32
2023-04-22T11:35:53.107Z,4.05
2023-04-22T11:38:26.034Z,5.72
2023-04-22T11:40:59.003Z,3.90
2023-04-22T11:43:32.133Z,4.78
2023-04-22T11:46:07.983Z,5.05
2023-04-22T11:48:40.885Z,4.90
2023-04-22T11:51:13.929Z,7.53
2023-04-22T11:53:52.018Z,5.32
2023-04-22T11:56:25.051Z,6.63
2023-04-22T11:58:57.963Z,3.58
2023-04-22T12:01:32.739Z,3.03
2023-04-22T12:04:05.675Z,3.20
2023-04-22T12:06:42.350Z,6.03
2023-04-22T12:09:15.401Z,4.35
2023-04-22T12:11:48.436Z,3.88
2023-04-22T12:14:21.473Z,3.47
2023-04-22T12:16:55.916Z,3.60
2023-04-22T12:19:31.937Z,6.68
2023-04-22T12:22:04.996Z,3.63
2023-04-22T12:24:46.812Z,3.92
2023-04-22T12:27:19.682Z,3.20
2023-04-22T12:32:30.515Z,6.75
2023-04-22T12:35:03.607Z,4.00
2023-04-22T12:37:39.137Z,4.55
2023-04-22T12:40:12.806Z,5.07
2023-04-22T12:42:45.674Z,4.80
2023-04-22T12:45:18.603Z,4.93
2023-04-22T12:50:28.454Z,3.85
2023-04-22T12:53:01.451Z,3.95
2023-04-22T12:58:45.297Z,4.18
2023-04-22T13:03:53.310Z,6.28
2023-04-22T13:06:26.892Z,6.68
2023-04-22T13:08:59.906Z,6.97
2023-04-22T13:14:05.651Z,4.57
2023-04-22T13:19:13.272Z,7.35
2023-04-22T13:21:46.116Z,4.93
2023-04-22T13:26:57.353Z,3.92
2023-04-22T13:29:30.314Z,3.85
2023-04-22T13:32:04.439Z,4.60
2023-04-22T13:34:39.685Z,5.20
2023-04-22T13:37:14.974Z,4.38
2023-04-22T13:39:48.309Z,4.32
2023-04-22T13:42:21.736Z,4.30
2023-04-22T13:44:56.435Z,3.83
2023-04-22T13:47:29.354Z,6.18
2023-04-22T13:50:05.559Z,6.57
2023-04-22T13:52:38.463Z,8.57
2023-04-22T13:55:11.822Z,5.82
2023-04-22T13:57:47.890Z,5.53
2023-04-22T14:00:21.181Z,4.03
2023-04-22T14:02:54.259Z,4.20
2023-04-22T14:05:28.608Z,3.40
2023-04-22T14:08:05.424Z,4.95
2023-04-22T14:10:38.242Z,4.15
2023-04-22T14:13:11.185Z,5.05
2023-04-22T14:15:44.192Z,6.03
2023-04-22T14:18:17.236Z,7.03
2023-04-22T14:21:04.329Z,6.43
2023-04-22T14:23:38.741Z,4.28
2023-04-22T14:26:14.531Z,5.70
2023-04-22T14:28:47.593Z,3.63
2023-04-22T14:31:21.122Z,3.42
2023-04-22T14:33:54.140Z,7.68
2023-04-22T14:36:28.734Z,3.53
2023-04-22T14:39:01.842Z,4.45
2023-04-22T14:41:34.920Z,5.72
2023-04-22T14:44:07.956Z,5.20
2023-04-22T14:46:41.299Z,5.57
2023-04-22T14:49:14.378Z,4.55
2023-04-22T14:51:49.293Z,4.25
2023-04-22T14:54:22.252Z,5.80
2023-04-22T14:56:56.068Z,5.97
2023-04-22T14:59:29.038Z,4.00
2023-04-22T15:02:02.176Z,5.43
2023-04-22T15:04:35.321Z,6.28
2023-04-22T15:07:10.060Z,4.55
2023-04-22T15:09:43.720Z,4.65
2023-04-22T15:12:16.798Z,6.65
2023-04-22T15:14:49.870Z,6.68
2023-04-22T15:17:23.498Z,6.57
2023-04-22T15:19:57.736Z,4.88
2023-04-22T15:22:32.706Z,6.60
2023-04-22T15:25:06.433Z,6.70
2023-04-22T15:27:39.811Z,3.88
2023-04-22T15:30:13.089Z,4.70
2023-04-22T15:32:46.127Z,9.25
2023-04-22T15:35:20.203Z,4.97
2023-04-22T15:37:54.476Z,4.43
2023-04-22T15:40:27.374Z,6.50
2023-04-22T15:43:00.373Z,6.18
2023-04-22T15:45:35.314Z,5.63
2023-04-22T15:48:08.274Z,5.85
2023-04-22T15:50:41.236Z,4.15
2023-04-22T15:53:15.551Z,6.43
2023-04-22T15:55:48.788Z,5.93
2023-04-22T16:00:56.320Z,9.60
2023-04-22T16:03:31.654Z,5.70
2023-04-22T16:06:05.107Z,7.22
2023-04-22T16:11:12.576Z,7.55
2023-04-22T16:13:46.393Z,3.75
2023-04-22T16:16:19.297Z,5.70
2023-04-22T16:18:52.283Z,4.85
2023-04-22T16:21:25.394Z,11.52
2023-04-22T16:24:00.869Z,7.38
2023-04-22T16:26:33.801Z,5.88
2023-04-22T16:29:06.690Z,8.38
2023-04-22T16:31:39.725Z,7.03
2023-04-22T16:34:12.630Z,7.65
2023-04-22T16:36:45.595Z,6.00
2023-04-22T16:39:19.837Z,6.85
2023-04-22T16:41:52.783Z,4.97
2023-04-22T16:44:25.770Z,8.05
2023-04-22T16:46:58.767Z,3.92
2023-04-22T16:49:31.696Z,6.70
2023-04-22T16:52:04.947Z,6.05
2023-04-22T16:54:40.771Z,6.53
2023-04-22T16:57:13.934Z,5.75
2023-04-22T16:59:47.533Z,9.68
2023-04-22T17:02:20.758Z,7.75
2023-04-22T17:04:53.816Z,5.95
2023-04-22T17:07:26.846Z,5.22
2023-04-22T17:10:01.143Z,6.88
2023-04-22T17:12:34.100Z,7.82
2023-04-22T17:15:08.498Z,11.80
2023-04-22T17:17:41.822Z,5.20
2023-04-22T17:20:14.963Z,7.15
2023-04-22T17:22:48.158Z,8.55
2023-04-22T17:25:22.726Z,9.93
2023-04-22T17:28:11.042Z,7.47
2023-04-22T17:30:44.425Z,8.82
2023-04-22T17:36:12.140Z,8.45
2023-04-22T17:38:45.952Z,12.15
2023-04-22T17:41:26.894Z,11.15
2023-04-22T17:44:04.308Z,9.70
2023-04-22T17:46:37.422Z,9.73
2023-04-22T17:49:17.229Z,10.68
2023-04-22T17:51:56.555Z,17.58
2023-04-22T17:54:29.530Z,14.50
2023-04-22T17:57:04.100Z,7.82
2023-04-22T17:59:40.364Z,6.00
2023-04-22T18:02:27.167Z,12.43
2023-04-22T18:05:00.164Z,9.50
2023-04-22T18:07:33.111Z,6.22
2023-04-22T18:10:07.399Z,8.52
2023-04-22T18:12:43.384Z,15.23
2023-04-22T18:15:16.424Z,21.05
2023-04-22T18:17:49.278Z,27.15
2023-04-22T18:20:22.425Z,32.85
2023-04-22T18:22:56.347Z,26.13
2023-04-22T18:25:29.427Z,20.65
2023-04-22T18:28:03.694Z,21.25
2023-04-22T18:30:36.750Z,25.23
2023-04-22T18:33:13.936Z,18.42
2023-04-22T18:35:47.470Z,25.85
2023-04-22T18:38:21.740Z,17.95
2023-04-22T18:40:54.680Z,19.38
2023-04-22T18:43:29.038Z,35.97
2023-04-22T18:46:01.887Z,36.78
2023-04-22T18:48:34.792Z,34.22
2023-04-22T18:51:07.714Z,33.47
2023-04-22T18:53:42.759Z,35.72
2023-04-22T18:56:15.764Z,36.08
2023-04-22T18:58:50.154Z,39.92
2023-04-22T19:01:23.136Z,39.30
2023-04-22T19:03:56.200Z,41.38
2023-04-22T19:06:29.812Z,42.38
2023-04-22T19:11:37.471Z,81.45
2023-04-22T19:14:13.697Z,61.97
2023-04-22T19:16:46.619Z,69.55
2023-04-22T19:19:19.535Z,66.57
2023-04-22T19:21:52.594Z,54.67
2023-04-22T19:24:32.036Z,57.92
2023-04-22T19:27:07.130Z,58.85
2023-04-22T19:29:42.805Z,62.53
2023-04-22T19:32:15.971Z,44.47
2023-04-22T19:34:50.211Z,42.03
2023-04-22T19:37:23.067Z,47.42
2023-04-22T19:39:56.086Z,44.53
2023-04-22T19:42:29.116Z,59.50
2023-04-22T19:45:04.046Z,55.83
2023-04-22T19:47:37.246Z,51.00
2023-04-22T19:50:11.372Z,43.08
2023-04-22T19:52:47.039Z,38.85
2023-04-22T19:55:20.994Z,41.22
2023-04-22T19:57:54.564Z,38.70
2023-04-22T20:03:02.251Z,37.58
2023-04-22T20:08:09.022Z,34.55
2023-04-22T20:10:42.460Z,29.88
2023-04-22T20:13:15.648Z,31.77
2023-04-22T20:15:50.833Z,26.15
2023-04-22T20:18:24.019Z,32.55
2023-04-22T20:20:58.593Z,23.10
2023-04-22T20:23:34.539Z,23.55
2023-04-22T20:26:08.301Z,29.00
2023-04-22T20:28:46.044Z,22.88
2023-04-22T20:31:22.593Z,28.20
2023-04-22T20:33:57.227Z,25.40
2023-04-22T20:36:30.662Z,20.25
2023-04-22T20:39:06.064Z,22.48
2023-04-22T20:41:39.884Z,17.65
2023-04-22T20:44:14.209Z,19.60
2023-04-22T20:46:48.790Z,20.63
2023-04-22T20:49:22.045Z,18.08
2023-04-22T20:51:56.274Z,19.95
2023-04-22T20:54:29.583Z,14.80
2023-04-22T20:57:03.565Z,17.63
2023-04-22T20:59:37.018Z,18.45
2023-04-22T21:02:12.270Z,20.25
2023-04-22T21:04:45.474Z,18.23
2023-04-22T21:07:20.397Z,22.45
2023-04-22T21:09:53.603Z,20.75
2023-04-22T21:12:27.279Z,25.20
2023-04-22T21:17:36.420Z,22.52
2023-04-22T21:20:10.889Z,22.40
2023-04-22T21:22:44.403Z,26.80
2023-04-22T21:25:23.182Z,25.63
2023-04-22T21:27:56.500Z,26.15
2023-04-22T21:30:30.086Z,29.48
2023-04-22T21:35:39.191Z,35.00
2023-04-22T21:38:12.091Z,31.55
2023-04-22T21:40:44.927Z,26.08
2023-04-22T21:43:17.762Z,29.58
2023-04-22T21:45:50.693Z,29.75
2023-04-22T21:48:24.891Z,29.27
2023-04-22T21:50:57.817Z,27.80
2023-04-22T21:53:30.748Z,28.38
2023-04-22T21:56:03.608Z,29.67
2023-04-22T21:58:36.417Z,30.42
2023-04-22T22:01:09.343Z,26.15
2023-04-22T22:03:43.644Z,28.80
2023-04-22T22:06:16.568Z,28.98
2023-04-22T22:08:49.362Z,28.60
2023-04-22T22:13:57.962Z,27.40
2023-04-22T22:16:31.021Z,31.70
2023-04-22T22:19:06.447Z,31.23
2023-04-22T22:21:39.379Z,39.85
2023-04-22T22:24:12.303Z,31.35
2023-04-22T22:26:45.520Z,27.80
2023-04-22T22:29:18.503Z,28.85
2023-04-22T22:31:51.412Z,27.17
2023-04-22T22:34:25.585Z,29.52
2023-04-22T22:36:58.500Z,27.63
2023-04-22T22:39:31.318Z,27.60
2023-04-22T22:42:04.394Z,25.93
2023-04-22T22:44:37.216Z,21.63
2023-04-22T22:47:10.852Z,26.02
2023-04-22T22:52:17.877Z,19.35
2023-04-22T22:54:50.948Z,25.67
2023-04-22T22:57:23.796Z,25.83
2023-04-22T22:59:56.615Z,24.07
2023-04-22T23:02:29.585Z,23.63
2023-04-22T23:05:04.002Z,39.42
2023-04-22T23:07:37.088Z,27.88
2023-04-22T23:10:10.676Z,32.40
2023-04-22T23:12:43.548Z,26.65
2023-04-22T23:15:16.468Z,28.10
2023-04-22T23:17:51.119Z,25.55
2023-04-22T23:20:26.445Z,25.92
2023-04-22T23:23:02.410Z,23.40
2023-04-22T23:25:35.791Z,27.60
2023-04-22T23:28:09.070Z,23.52
2023-04-22T23:30:43.956Z,25.75
2023-04-22T23:33:17.550Z,21.17
2023-04-22T23:35:53.262Z,22.40
2023-04-22T23:38:27.261Z,20.90
2023-04-22T23:41:00.127Z,22.52
2023-04-22T23:43:32.994Z,22.02
2023-04-22T23:46:06.290Z,22.00
2023-04-22T23:48:39.119Z,21.10
2023-04-22T23:51:16.157Z,23.47
2023-04-22T23:53:49.038Z,20.83
2023-04-22T23:56:23.003Z,22.65
2023-04-22T23:58:56.373Z,23.58
